createdAt,value
2022-10-07T00:01:08.589Z,65.26
2022-10-07T00:03:35.107Z,65.03
2022-10-07T00:06:01.502Z,65.08
2022-10-07T00:08:28.001Z,65.17
2022-10-07T00:10:54.355Z,64.79
2022-10-07T00:13:20.739Z,65.16
2022-10-07T00:15:47.188Z,64.79
2022-10-07T00:18:14.024Z,64.93
2022-10-07T00:20:40.456Z,64.92
2022-10-07T00:23:07.020Z,64.84
2022-10-07T00:25:33.627Z,65.04
2022-10-07T00:28:00.063Z,64.81
2022-10-07T00:30:26.682Z,64.82
2022-10-07T00:32:53.065Z,64.57
2022-10-07T00:35:19.510Z,64.58
2022-10-07T00:37:46.426Z,64.65
2022-10-07T00:40:13.173Z,64.87
2022-10-07T00:42:39.528Z,64.72
2022-10-07T00:45:06.301Z,64.56
2022-10-07T00:47:34.656Z,64.36
2022-10-07T00:50:01.628Z,64.40
2022-10-07T00:52:28.026Z,64.70
2022-10-07T00:54:54.526Z,64.15
2022-10-07T00:57:20.861Z,64.50
2022-10-07T00:59:47.274Z,64.23
2022-10-07T01:02:13.637Z,64.09
2022-10-07T01:04:40.011Z,64.19
2022-10-07T01:07:07.015Z,64.57
2022-10-07T01:09:33.328Z,64.36
2022-10-07T01:11:59.921Z,64.58
2022-10-07T01:14:26.450Z,64.35
2022-10-07T01:16:52.876Z,64.36
2022-10-07T01:19:19.440Z,64.47
2022-10-07T01:21:46.144Z,64.42
2022-10-07T01:24:12.531Z,64.37
2022-10-07T01:26:38.935Z,64.01
2022-10-07T01:29:05.445Z,64.20
2022-10-07T01:31:31.825Z,64.30
2022-10-07T01:33:58.224Z,63.87
2022-10-07T01:36:24.730Z,64.02
2022-10-07T01:38:51.123Z,64.23
2022-10-07T01:41:17.474Z,64.11
2022-10-07T01:43:43.894Z,64.09
2022-10-07T01:46:10.405Z,64.19
2022-10-07T01:48:36.794Z,64.13
2022-10-07T01:51:03.068Z,64.11
2022-10-07T01:53:29.425Z,63.96
2022-10-07T01:55:55.822Z,64.19
2022-10-07T01:58:22.279Z,63.76
2022-10-07T02:00:48.702Z,63.72
2022-10-07T02:03:15.160Z,63.83
2022-10-07T02:05:41.516Z,63.62
2022-10-07T02:08:07.823Z,63.96
2022-10-07T02:10:34.195Z,63.81
2022-10-07T02:13:00.611Z,63.62
2022-10-07T02:15:26.915Z,63.89
2022-10-07T02:17:53.445Z,63.63
2022-10-07T02:20:19.734Z,63.95
2022-10-07T02:22:46.021Z,63.60
2022-10-07T02:25:12.599Z,63.95
2022-10-07T02:27:39.050Z,63.33
2022-10-07T02:30:05.413Z,63.53
2022-10-07T02:32:32.461Z,63.58
2022-10-07T02:34:58.812Z,63.70
2022-10-07T02:37:25.235Z,63.80
2022-10-07T02:39:52.323Z,63.84
2022-10-07T02:42:18.640Z,63.81
2022-10-07T02:44:44.985Z,63.79
2022-10-07T02:47:11.402Z,63.63
2022-10-07T02:49:37.663Z,63.92
2022-10-07T02:52:04.033Z,63.87
2022-10-07T02:54:30.466Z,63.66
2022-10-07T02:56:56.800Z,63.89
2022-10-07T02:59:23.238Z,63.55
2022-10-07T03:01:49.656Z,64.03
2022-10-07T03:04:16.026Z,64.05
2022-10-07T03:06:42.383Z,63.65
2022-10-07T03:09:08.705Z,63.76
2022-10-07T03:11:35.146Z,63.46
2022-10-07T03:14:01.477Z,63.63
2022-10-07T03:16:30.027Z,63.64
2022-10-07T03:18:56.412Z,63.80
2022-10-07T03:21:22.720Z,63.96
2022-10-07T03:23:49.186Z,63.75
2022-10-07T03:26:15.647Z,63.84
2022-10-07T03:28:41.974Z,63.60
2022-10-07T03:31:08.558Z,63.47
2022-10-07T03:33:34.897Z,63.50
2022-10-07T03:36:01.362Z,63.88
2022-10-07T03:38:27.865Z,63.38
2022-10-07T03:40:54.243Z,63.68
2022-10-07T03:43:20.537Z,63.52
2022-10-07T03:45:46.855Z,63.65
2022-10-07T03:48:13.246Z,63.61
2022-10-07T03:50:39.592Z,63.58
2022-10-07T03:53:06.164Z,63.61
2022-10-07T03:55:32.614Z,63.25
2022-10-07T03:57:59.786Z,63.28
2022-10-07T04:00:26.346Z,63.26
2022-10-07T04:02:52.887Z,63.17
2022-10-07T04:05:19.302Z,63.53
2022-10-07T04:07:46.632Z,62.93
2022-10-07T04:10:13.237Z,63.48
2022-10-07T04:12:40.950Z,63.07
2022-10-07T04:15:07.366Z,63.21
2022-10-07T04:17:33.942Z,63.06
2022-10-07T04:20:00.633Z,63.03
2022-10-07T04:22:27.196Z,63.02
2022-10-07T04:24:53.509Z,63.07
2022-10-07T04:27:39.967Z,63.04
2022-10-07T04:30:06.158Z,63.22
2022-10-07T04:32:34.052Z,63.00
2022-10-07T04:35:00.412Z,62.75
2022-10-07T04:37:27.090Z,63.18
2022-10-07T04:40:00.543Z,62.82
2022-10-07T04:42:27.638Z,62.98
2022-10-07T04:44:54.066Z,62.99
2022-10-07T04:47:20.731Z,62.69
2022-10-07T04:49:47.075Z,62.96
2022-10-07T04:52:13.442Z,63.03
2022-10-07T04:54:39.757Z,62.66
2022-10-07T04:57:06.082Z,62.91
2022-10-07T04:59:34.314Z,62.94
2022-10-07T05:02:00.818Z,62.76
2022-10-07T05:04:27.642Z,62.87
2022-10-07T05:06:54.239Z,62.74
2022-10-07T05:09:20.864Z,62.33
2022-10-07T05:11:47.278Z,62.87
2022-10-07T05:14:13.594Z,62.90
2022-10-07T05:16:40.123Z,62.80
2022-10-07T05:19:06.819Z,62.81
2022-10-07T05:21:33.636Z,62.64
2022-10-07T05:23:59.968Z,62.81
2022-10-07T05:26:26.340Z,61.75
2022-10-07T05:28:52.766Z,61.44
2022-10-07T05:31:19.293Z,61.89
2022-10-07T05:33:45.616Z,61.76
2022-10-07T05:36:11.988Z,61.76
2022-10-07T05:38:38.420Z,61.30
2022-10-07T05:41:04.882Z,61.21
2022-10-07T05:43:31.193Z,61.45
2022-10-07T05:45:57.526Z,61.39
2022-10-07T05:48:25.809Z,61.53
2022-10-07T05:50:52.089Z,61.49
2022-10-07T05:53:19.020Z,61.22
2022-10-07T05:55:45.429Z,61.44
2022-10-07T05:58:11.742Z,61.67
2022-10-07T06:00:38.078Z,61.73
2022-10-07T06:03:04.809Z,61.42
2022-10-07T06:05:31.301Z,61.57
2022-10-07T06:07:57.837Z,61.50
2022-10-07T06:10:24.285Z,61.65
2022-10-07T06:12:50.630Z,61.71
2022-10-07T06:15:16.924Z,61.84
2022-10-07T06:17:43.695Z,61.84
2022-10-07T06:20:10.233Z,61.93
2022-10-07T06:22:36.739Z,62.11
2022-10-07T06:25:03.394Z,62.18
2022-10-07T06:27:29.770Z,61.71
2022-10-07T06:29:56.182Z,61.71
2022-10-07T06:32:22.536Z,61.78
2022-10-07T06:34:48.917Z,62.00
2022-10-07T06:37:15.886Z,62.30
2022-10-07T06:39:43.308Z,62.10
2022-10-07T06:42:09.689Z,62.04
2022-10-07T06:44:35.978Z,62.15
2022-10-07T06:47:02.461Z,62.02
2022-10-07T06:49:28.856Z,61.91
2022-10-07T06:51:55.389Z,61.83
2022-10-07T06:54:21.788Z,61.78
2022-10-07T06:56:48.413Z,62.20
2022-10-07T06:59:14.873Z,62.00
2022-10-07T07:01:41.264Z,62.35
2022-10-07T07:04:07.747Z,61.96
2022-10-07T07:06:34.317Z,61.95
2022-10-07T07:09:00.695Z,62.42
2022-10-07T07:11:27.761Z,62.14
2022-10-07T07:13:54.246Z,62.30
2022-10-07T07:16:20.654Z,62.00
2022-10-07T07:18:47.177Z,62.14
2022-10-07T07:21:13.480Z,62.40
2022-10-07T07:23:40.003Z,62.28
2022-10-07T07:26:06.541Z,62.41
2022-10-07T07:28:32.944Z,62.27
2022-10-07T07:30:59.347Z,62.24
2022-10-07T07:33:27.528Z,62.23
2022-10-07T07:35:53.978Z,62.60
2022-10-07T07:38:23.424Z,62.42
2022-10-07T07:40:51.962Z,62.59
2022-10-07T07:43:18.218Z,62.44
2022-10-07T07:45:44.809Z,62.47
2022-10-07T07:48:11.173Z,62.37
2022-10-07T07:50:37.506Z,62.70
2022-10-07T07:53:03.888Z,62.63
2022-10-07T07:55:30.231Z,62.55
2022-10-07T07:57:56.586Z,62.54
2022-10-07T08:00:23.425Z,62.61
2022-10-07T08:02:49.778Z,62.41
2022-10-07T08:05:19.039Z,62.70
2022-10-07T08:07:48.496Z,62.64
2022-10-07T08:10:15.008Z,62.96
2022-10-07T08:12:41.411Z,62.64
2022-10-07T08:15:08.164Z,62.61
2022-10-07T08:17:34.746Z,62.45
2022-10-07T08:20:01.306Z,62.99
2022-10-07T08:22:27.918Z,63.00
2022-10-07T08:24:54.599Z,63.27
2022-10-07T08:27:20.917Z,62.63
2022-10-07T08:29:47.304Z,62.61
2022-10-07T08:32:13.758Z,62.37
2022-10-07T08:34:40.296Z,62.09
2022-10-07T08:37:06.547Z,62.39
2022-10-07T08:39:32.882Z,62.24
2022-10-07T08:41:59.673Z,62.46
2022-10-07T08:44:26.948Z,62.03
2022-10-07T08:46:53.395Z,62.22
2022-10-07T08:49:19.947Z,62.42
2022-10-07T08:51:46.324Z,62.26
2022-10-07T08:54:12.806Z,62.39
2022-10-07T08:56:39.841Z,62.53
2022-10-07T08:59:06.194Z,62.02
2022-10-07T09:01:32.798Z,61.79
2022-10-07T09:03:59.165Z,62.19
2022-10-07T09:06:26.218Z,61.92
2022-10-07T09:08:52.586Z,62.30
2022-10-07T09:11:18.993Z,62.28
2022-10-07T09:13:45.260Z,62.48
2022-10-07T09:16:11.677Z,62.31
2022-10-07T09:18:38.078Z,62.45
2022-10-07T09:21:04.654Z,62.71
2022-10-07T09:23:31.064Z,62.79
2022-10-07T09:25:57.398Z,62.71
2022-10-07T09:28:23.848Z,62.83
2022-10-07T09:30:50.359Z,63.09
2022-10-07T09:33:16.681Z,62.88
2022-10-07T09:35:42.990Z,63.00
2022-10-07T09:38:09.625Z,62.87
2022-10-07T09:40:36.013Z,62.94
2022-10-07T09:43:02.316Z,63.31
2022-10-07T09:45:29.130Z,63.12
2022-10-07T09:47:55.514Z,63.39
2022-10-07T09:50:22.247Z,63.04
2022-10-07T09:52:48.611Z,63.20
2022-10-07T09:55:15.147Z,63.49
2022-10-07T09:57:41.498Z,63.40
2022-10-07T10:00:07.998Z,63.49
2022-10-07T10:02:34.495Z,63.26
2022-10-07T10:05:01.114Z,63.45
2022-10-07T10:07:27.630Z,63.29
2022-10-07T10:09:53.986Z,63.48
2022-10-07T10:12:20.654Z,63.34
2022-10-07T10:14:47.035Z,63.66
2022-10-07T10:17:13.353Z,63.73
2022-10-07T10:19:39.956Z,63.65
2022-10-07T10:22:06.460Z,63.65
2022-10-07T10:24:32.742Z,63.71
2022-10-07T10:26:59.097Z,63.57
2022-10-07T10:29:25.577Z,63.83
2022-10-07T10:31:52.109Z,63.73
2022-10-07T10:34:18.457Z,63.82
2022-10-07T10:36:44.846Z,63.98
2022-10-07T10:39:11.582Z,63.66
2022-10-07T10:41:37.876Z,63.89
2022-10-07T10:44:04.123Z,64.02
2022-10-07T10:46:30.465Z,63.73
2022-10-07T10:48:56.813Z,63.84
2022-10-07T10:51:23.113Z,63.76
2022-10-07T10:53:49.831Z,63.80
2022-10-07T10:56:16.121Z,63.72
2022-10-07T10:58:42.828Z,63.73
2022-10-07T11:01:09.289Z,63.85
2022-10-07T11:03:35.618Z,64.12
2022-10-07T11:06:01.975Z,64.07
2022-10-07T11:08:28.423Z,63.95
2022-10-07T11:10:55.899Z,64.12
2022-10-07T11:13:22.177Z,63.80
2022-10-07T11:15:48.580Z,64.12
2022-10-07T11:18:14.920Z,63.75
2022-10-07T11:20:44.649Z,63.88
2022-10-07T11:23:11.604Z,64.04
2022-10-07T11:25:38.021Z,63.88
2022-10-07T11:28:04.399Z,63.91
2022-10-07T11:30:30.857Z,63.99
2022-10-07T11:32:57.180Z,63.73
2022-10-07T11:35:23.901Z,63.69
2022-10-07T11:37:50.514Z,63.77
2022-10-07T11:40:17.038Z,63.59
2022-10-07T11:42:43.850Z,63.82
2022-10-07T11:45:10.382Z,63.86
2022-10-07T11:47:36.925Z,63.62
2022-10-07T11:50:03.199Z,63.59
2022-10-07T11:52:29.515Z,64.03
2022-10-07T11:54:56.858Z,64.13
2022-10-07T11:57:23.474Z,63.62
2022-10-07T11:59:49.796Z,64.00
2022-10-07T12:02:16.181Z,63.65
2022-10-07T12:04:42.803Z,63.88
2022-10-07T12:07:09.396Z,63.82
2022-10-07T12:09:36.383Z,63.91
2022-10-07T12:12:03.046Z,63.66
2022-10-07T12:14:29.426Z,63.73
2022-10-07T12:16:55.956Z,64.01
2022-10-07T12:19:23.806Z,63.84
2022-10-07T12:21:50.942Z,64.00
2022-10-07T12:24:17.257Z,64.20
2022-10-07T12:26:43.568Z,64.03
2022-10-07T12:29:10.029Z,64.28
2022-10-07T12:31:36.736Z,63.90
2022-10-07T12:34:03.088Z,64.17
2022-10-07T12:36:29.416Z,64.15
2022-10-07T12:38:55.735Z,64.16
2022-10-07T12:41:22.130Z,63.92
2022-10-07T12:43:48.443Z,64.12
2022-10-07T12:46:14.856Z,64.38
2022-10-07T12:48:41.329Z,63.99
2022-10-07T12:51:07.661Z,64.42
2022-10-07T12:53:34.150Z,64.22
2022-10-07T12:56:00.479Z,64.27
2022-10-07T12:58:26.828Z,64.32
2022-10-07T13:00:53.296Z,64.22
2022-10-07T13:03:19.744Z,64.17
2022-10-07T13:05:46.008Z,64.58
2022-10-07T13:08:12.371Z,64.23
2022-10-07T13:10:38.739Z,64.44
2022-10-07T13:13:05.224Z,64.52
2022-10-07T13:15:31.826Z,64.24
2022-10-07T13:17:58.264Z,64.39
2022-10-07T13:20:24.714Z,64.35
2022-10-07T13:22:51.240Z,64.54
2022-10-07T13:25:18.132Z,64.50
2022-10-07T13:27:44.513Z,64.72
2022-10-07T13:30:10.905Z,64.51
2022-10-07T13:32:38.296Z,64.60
2022-10-07T13:35:04.739Z,64.88
2022-10-07T13:37:31.043Z,64.41
2022-10-07T13:39:57.537Z,64.69
2022-10-07T13:42:23.949Z,64.84
2022-10-07T13:44:50.375Z,64.86
2022-10-07T13:47:16.642Z,64.70
2022-10-07T13:49:42.954Z,64.89
2022-10-07T13:52:09.256Z,64.73
2022-10-07T13:54:35.856Z,64.68
2022-10-07T13:57:02.921Z,64.91
2022-10-07T13:59:29.570Z,64.81
2022-10-07T14:01:55.858Z,64.69
2022-10-07T14:04:22.504Z,64.90
2022-10-07T14:06:48.857Z,65.03
2022-10-07T14:09:15.194Z,65.16
2022-10-07T14:11:42.394Z,64.99
2022-10-07T14:14:08.738Z,65.23
2022-10-07T14:16:35.079Z,65.17
2022-10-07T14:19:01.471Z,65.33
2022-10-07T14:21:27.896Z,65.26
2022-10-07T14:23:54.282Z,65.36
2022-10-07T14:26:20.713Z,65.27
2022-10-07T14:28:47.241Z,65.34
2022-10-07T14:31:13.655Z,65.06
2022-10-07T14:33:40.200Z,65.17
2022-10-07T14:36:06.729Z,65.30
2022-10-07T14:38:33.068Z,65.17
2022-10-07T14:40:59.433Z,65.35
2022-10-07T14:43:25.989Z,65.51
2022-10-07T14:45:52.535Z,65.11
2022-10-07T14:48:19.042Z,65.28
2022-10-07T14:50:45.489Z,65.60
2022-10-07T14:53:11.827Z,65.41
2022-10-07T14:55:38.213Z,65.36
2022-10-07T14:58:04.588Z,65.70
2022-10-07T15:00:33.865Z,65.32
2022-10-07T15:03:04.016Z,65.48
2022-10-07T15:05:30.359Z,65.37
2022-10-07T15:07:56.801Z,65.81
2022-10-07T15:10:23.880Z,65.52
2022-10-07T15:12:50.158Z,65.15
2022-10-07T15:15:16.533Z,65.31
2022-10-07T15:17:42.798Z,65.69
2022-10-07T15:20:09.703Z,65.32
2022-10-07T15:22:36.166Z,65.63
2022-10-07T15:25:02.527Z,65.59
2022-10-07T15:27:28.909Z,65.38
2022-10-07T15:29:55.337Z,65.55
2022-10-07T15:32:21.949Z,65.16
2022-10-07T15:34:48.390Z,65.26
2022-10-07T15:37:14.778Z,65.34
2022-10-07T15:39:41.149Z,65.57
2022-10-07T15:42:07.561Z,65.50
2022-10-07T15:44:33.900Z,65.56
2022-10-07T15:47:00.189Z,65.47
2022-10-07T15:49:26.807Z,65.47
2022-10-07T15:51:53.433Z,65.01
2022-10-07T15:54:20.196Z,65.06
2022-10-07T15:56:46.512Z,65.19
2022-10-07T15:59:12.893Z,65.43
2022-10-07T16:01:39.231Z,65.40
2022-10-07T16:04:05.811Z,65.42
2022-10-07T16:06:32.402Z,65.39
2022-10-07T16:08:58.837Z,65.17
2022-10-07T16:11:25.346Z,65.04
2022-10-07T16:13:51.761Z,65.26
2022-10-07T16:16:18.366Z,65.07
2022-10-07T16:18:44.982Z,65.06
2022-10-07T16:21:11.280Z,65.07
2022-10-07T16:23:37.615Z,65.22
2022-10-07T16:26:04.327Z,65.21
2022-10-07T16:28:32.692Z,64.83
2022-10-07T16:30:59.588Z,64.89
2022-10-07T16:33:25.954Z,65.23
2022-10-07T16:35:52.299Z,65.10
2022-10-07T16:38:19.310Z,64.95
2022-10-07T16:40:45.631Z,64.88
2022-10-07T16:43:12.046Z,65.12
2022-10-07T16:45:38.523Z,65.13
2022-10-07T16:48:04.858Z,65.13
2022-10-07T16:50:31.170Z,65.10
2022-10-07T16:52:57.921Z,64.95
2022-10-07T16:55:24.258Z,65.26
2022-10-07T16:57:50.850Z,65.09
2022-10-07T17:00:17.282Z,64.89
2022-10-07T17:02:43.585Z,65.14
2022-10-07T17:05:09.942Z,65.12
2022-10-07T17:07:36.322Z,64.90
2022-10-07T17:10:02.694Z,65.17
2022-10-07T17:12:29.234Z,65.14
2022-10-07T17:14:55.605Z,65.05
2022-10-07T17:17:21.958Z,64.90
2022-10-07T17:19:48.368Z,65.08
2022-10-07T17:22:14.756Z,65.00
2022-10-07T17:24:41.100Z,65.21
2022-10-07T17:27:07.424Z,64.83
2022-10-07T17:29:33.837Z,64.96
2022-10-07T17:32:00.336Z,64.82
2022-10-07T17:34:26.833Z,64.92
2022-10-07T17:36:53.222Z,64.87
2022-10-07T17:39:19.701Z,65.10
2022-10-07T17:41:46.060Z,64.92
2022-10-07T17:44:12.360Z,64.72
2022-10-07T17:46:38.829Z,64.89
2022-10-07T17:49:05.222Z,64.74
2022-10-07T17:51:31.738Z,64.95
2022-10-07T17:53:58.046Z,65.10
2022-10-07T17:56:24.496Z,64.96
2022-10-07T17:58:50.767Z,65.07
2022-10-07T18:01:17.229Z,65.00
2022-10-07T18:03:43.612Z,65.07
2022-10-07T18:06:10.122Z,64.74
2022-10-07T18:08:36.451Z,65.06
2022-10-07T18:11:02.960Z,65.13
2022-10-07T18:13:29.323Z,64.69
2022-10-07T18:15:55.662Z,64.99
2022-10-07T18:18:22.023Z,64.65
2022-10-07T18:20:48.360Z,64.78
2022-10-07T18:23:14.674Z,64.82
2022-10-07T18:25:40.924Z,64.83
2022-10-07T18:28:07.731Z,65.10
2022-10-07T18:30:34.047Z,64.65
2022-10-07T18:33:00.524Z,64.72
2022-10-07T18:35:26.939Z,64.55
2022-10-07T18:37:53.385Z,64.58
2022-10-07T18:40:19.696Z,64.60
2022-10-07T18:42:46.153Z,64.90
2022-10-07T18:45:12.645Z,64.89
2022-10-07T18:47:38.960Z,64.63
2022-10-07T18:50:05.344Z,64.54
2022-10-07T18:52:31.920Z,64.83
2022-10-07T18:54:58.808Z,64.52
2022-10-07T18:57:25.205Z,64.71
2022-10-07T18:59:51.545Z,64.79
2022-10-07T19:02:18.011Z,64.76
2022-10-07T19:04:44.446Z,64.54
2022-10-07T19:07:10.916Z,64.81
2022-10-07T19:09:38.075Z,64.82
2022-10-07T19:12:04.510Z,64.90
2022-10-07T19:14:30.825Z,64.47
2022-10-07T19:16:57.168Z,64.40
2022-10-07T19:19:23.576Z,64.68
2022-10-07T19:21:50.020Z,64.53
2022-10-07T19:24:16.324Z,64.77
2022-10-07T19:26:42.790Z,64.71
2022-10-07T19:29:09.125Z,64.36
2022-10-07T19:31:35.662Z,64.57
2022-10-07T19:34:02.011Z,64.65
2022-10-07T19:36:28.349Z,64.74
2022-10-07T19:38:54.652Z,64.63
2022-10-07T19:41:20.959Z,64.75
2022-10-07T19:43:47.636Z,64.51
2022-10-07T19:46:14.192Z,64.84
2022-10-07T19:48:40.500Z,64.76
2022-10-07T19:51:06.793Z,64.39
2022-10-07T19:53:33.276Z,64.83
2022-10-07T19:55:59.668Z,64.62
2022-10-07T19:58:26.210Z,64.77
2022-10-07T20:00:52.541Z,64.78
2022-10-07T20:03:18.903Z,64.44
2022-10-07T20:05:45.227Z,64.71
2022-10-07T20:08:11.683Z,64.32
2022-10-07T20:10:38.198Z,64.53
2022-10-07T20:13:04.481Z,64.53
2022-10-07T20:15:30.836Z,64.33
2022-10-07T20:17:57.394Z,64.41
2022-10-07T20:20:23.727Z,64.60
2022-10-07T20:22:50.094Z,64.69
2022-10-07T20:25:16.455Z,64.43
2022-10-07T20:27:43.779Z,64.43
2022-10-07T20:30:13.941Z,64.55
2022-10-07T20:32:43.378Z,64.45
2022-10-07T20:35:10.060Z,64.59
2022-10-07T20:37:36.530Z,64.27
2022-10-07T20:40:02.778Z,64.45
2022-10-07T20:42:29.177Z,64.25
2022-10-07T20:44:55.494Z,64.19
2022-10-07T20:47:21.988Z,64.47
2022-10-07T20:49:48.421Z,64.24
2022-10-07T20:52:14.768Z,64.38
2022-10-07T20:54:41.130Z,64.46
2022-10-07T20:57:07.441Z,64.31
2022-10-07T20:59:33.769Z,64.37
2022-10-07T21:02:00.338Z,64.24
2022-10-07T21:04:26.925Z,64.58
2022-10-07T21:06:53.231Z,64.26
2022-10-07T21:09:19.614Z,64.38
2022-10-07T21:11:46.368Z,64.27
2022-10-07T21:14:12.722Z,64.32
2022-10-07T21:16:39.275Z,64.56
2022-10-07T21:19:05.649Z,64.47
2022-10-07T21:21:31.978Z,64.41
2022-10-07T21:23:58.297Z,64.36
2022-10-07T21:26:25.497Z,64.46
2022-10-07T21:28:51.913Z,64.47
2022-10-07T21:31:18.446Z,64.39
2022-10-07T21:33:46.485Z,64.48
2022-10-07T21:36:12.860Z,64.38
2022-10-07T21:38:39.170Z,64.03
2022-10-07T21:41:05.731Z,64.24
2022-10-07T21:43:32.306Z,64.09
2022-10-07T21:45:58.670Z,64.50
2022-10-07T21:48:25.062Z,64.62
2022-10-07T21:50:51.596Z,64.62
2022-10-07T21:53:17.862Z,64.07
2022-10-07T21:55:44.178Z,64.11
2022-10-07T21:58:10.553Z,64.05
2022-10-07T22:00:36.892Z,64.39
2022-10-07T22:03:03.577Z,64.33
2022-10-07T22:05:29.960Z,64.17
2022-10-07T22:07:56.360Z,64.33
2022-10-07T22:10:22.924Z,64.06
2022-10-07T22:12:49.610Z,64.40
2022-10-07T22:15:16.086Z,64.01
2022-10-07T22:17:42.461Z,64.35
2022-10-07T22:20:09.567Z,64.15
2022-10-07T22:22:36.254Z,64.12
2022-10-07T22:25:02.695Z,64.20
2022-10-07T22:27:28.976Z,63.95
2022-10-07T22:29:57.831Z,64.29
2022-10-07T22:32:24.108Z,63.92
2022-10-07T22:34:50.658Z,64.44
2022-10-07T22:37:16.970Z,63.94
2022-10-07T22:39:43.412Z,63.96
2022-10-07T22:42:09.774Z,64.33
2022-10-07T22:44:36.095Z,63.86
2022-10-07T22:47:02.388Z,63.98
2022-10-07T22:49:30.080Z,63.98
2022-10-07T22:51:56.732Z,64.04
2022-10-07T22:54:23.073Z,64.27
2022-10-07T22:56:49.651Z,63.97
2022-10-07T22:59:16.342Z,63.96
2022-10-07T23:01:42.670Z,64.16
2022-10-07T23:04:09.890Z,63.91
2022-10-07T23:06:36.190Z,63.83
2022-10-07T23:09:02.666Z,63.96
2022-10-07T23:11:29.087Z,63.97
2022-10-07T23:13:55.495Z,63.87
2022-10-07T23:16:21.951Z,64.13
2022-10-07T23:18:48.386Z,64.21
2022-10-07T23:21:14.786Z,63.88
2022-10-07T23:23:41.156Z,64.22
2022-10-07T23:26:07.944Z,63.90
2022-10-07T23:28:34.634Z,64.12
2022-10-07T23:31:01.217Z,64.16
2022-10-07T23:33:27.559Z,63.93
2022-10-07T23:35:54.213Z,64.12
2022-10-07T23:38:20.514Z,63.76
2022-10-07T23:40:46.866Z,63.92
2022-10-07T23:43:13.190Z,63.86
2022-10-07T23:45:39.493Z,64.21
2022-10-07T23:48:05.810Z,63.73
2022-10-07T23:50:32.186Z,63.92
2022-10-07T23:52:58.659Z,64.00
2022-10-07T23:55:25.225Z,63.73
2022-10-07T23:57:52.335Z,63.84
